DLH04T EDDF-LEAS
Flight info
| Callsign | DLH04T |
|---|---|
| Flight time | 2h 16m |
| Altitude | 38000 |
| Route | SOBRA8E SOBRA Y180 DIK UN857 TOLVU/N0439F390 DCT RAPOR DCT ESTOC DCT PON DCT DITAL DCT GODIX DCT DIDAK DCT KURIS DCT TERPO DCT ERIGA DCT FUJTI DCT ATLEN/N0341F230 N872 DEVAR |
| Aircraft | A20N/M-SDE2E3FGHIRWXY/LB1 |
Departure
| Time | 2026-05-08 21:46 |
|---|---|
| Airport | Frankfurt Main Airport (EDDF) |
Arrival
| Time | 2026-05-09 00:02 |
|---|---|
| Airport | Asturias Airport (LEAS) |
| Time | Latitude | Longitude | Altitude | Speed | Heading |
|---|---|---|---|---|---|
| 2026-05-08 21:25 | 50.04733 | 8.56739 | 371 ft | 0 kts | 114° |
| 2026-05-08 21:32 | 50.04735 | 8.56733 | 371 ft | 2 kts | 115° |
| 2026-05-08 21:32 | 50.04741 | 8.56711 | 371 ft | 2 kts | 115° |
| 2026-05-08 21:32 | 50.04750 | 8.56692 | 371 ft | 2 kts | 141° |
| 2026-05-08 21:33 | 50.04763 | 8.56681 | 371 ft | 2 kts | 161° |
| 2026-05-08 21:33 | 50.04778 | 8.56676 | 371 ft | 2 kts | 182° |
| 2026-05-08 21:33 | 50.04792 | 8.56680 | 371 ft | 1 kts | 201° |
| 2026-05-08 21:33 | 50.04798 | 8.56684 | 371 ft | 1 kts | 206° |
| 2026-05-08 21:34 | 50.04799 | 8.56685 | 371 ft | 0 kts | 206° |
| 2026-05-08 21:36 | 50.04770 | 8.56663 | 371 ft | 11 kts | 207° |
| 2026-05-08 21:36 | 50.04698 | 8.56549 | 371 ft | 15 kts | 217° |
| 2026-05-08 21:36 | 50.04635 | 8.56503 | 371 ft | 8 kts | 204° |
| 2026-05-08 21:36 | 50.04582 | 8.56464 | 371 ft | 6 kts | 206° |
| 2026-05-08 21:37 | 50.04532 | 8.56419 | 371 ft | 10 kts | 224° |
| 2026-05-08 21:37 | 50.04500 | 8.56316 | 371 ft | 13 kts | 250° |
| 2026-05-08 21:37 | 50.04462 | 8.56151 | 371 ft | 16 kts | 250° |
| 2026-05-08 21:37 | 50.04390 | 8.56032 | 371 ft | 16 kts | 173° |
| 2026-05-08 21:38 | 50.04284 | 8.56060 | 371 ft | 15 kts | 210° |
| 2026-05-08 21:38 | 50.04233 | 8.55916 | 371 ft | 15 kts | 249° |
| 2026-05-08 21:38 | 50.04195 | 8.55756 | 371 ft | 15 kts | 250° |
| 2026-05-08 21:38 | 50.04157 | 8.55593 | 371 ft | 16 kts | 250° |
| 2026-05-08 21:39 | 50.04118 | 8.55427 | 371 ft | 16 kts | 249° |
| 2026-05-08 21:39 | 50.04077 | 8.55260 | 371 ft | 16 kts | 250° |
| 2026-05-08 21:39 | 50.04036 | 8.55090 | 371 ft | 16 kts | 249° |
| 2026-05-08 21:39 | 50.03996 | 8.54922 | 371 ft | 16 kts | 250° |
| 2026-05-08 21:40 | 50.03957 | 8.54751 | 371 ft | 16 kts | 251° |
| 2026-05-08 21:40 | 50.03915 | 8.54577 | 371 ft | 16 kts | 250° |
| 2026-05-08 21:40 | 50.03872 | 8.54407 | 371 ft | 16 kts | 244° |
| 2026-05-08 21:41 | 50.03766 | 8.54080 | 371 ft | 16 kts | 250° |
| 2026-05-08 21:41 | 50.03725 | 8.53906 | 371 ft | 17 kts | 250° |
| 2026-05-08 21:41 | 50.03684 | 8.53733 | 371 ft | 17 kts | 250° |
| 2026-05-08 21:41 | 50.03642 | 8.53558 | 371 ft | 17 kts | 251° |
| 2026-05-08 21:42 | 50.03581 | 8.53405 | 371 ft | 16 kts | 211° |
| 2026-05-08 21:42 | 50.03476 | 8.53327 | 371 ft | 16 kts | 203° |
| 2026-05-08 21:42 | 50.03366 | 8.53333 | 371 ft | 16 kts | 148° |
| 2026-05-08 21:42 | 50.03341 | 8.53365 | 371 ft | 0 kts | 129° |
| 2026-05-08 21:44 | 50.03327 | 8.53392 | 371 ft | 9 kts | 127° |
| 2026-05-08 21:45 | 50.03281 | 8.53534 | 371 ft | 16 kts | 82° |
| 2026-05-08 21:45 | 50.03315 | 8.53686 | 371 ft | 35 kts | 69° |
| 2026-05-08 21:45 | 50.03495 | 8.54437 | 371 ft | 110 kts | 70° |
| 2026-05-08 21:45 | 50.03842 | 8.55866 | 414 ft | 164 kts | 68° |
| 2026-05-08 21:46 | 50.04263 | 8.57583 | 1048 ft | 169 kts | 68° |
| 2026-05-08 21:46 | 50.04662 | 8.59261 | 1857 ft | 168 kts | 67° |
| 2026-05-08 21:46 | 50.04937 | 8.61055 | 2498 ft | 179 kts | 89° |
| 2026-05-08 21:46 | 50.04491 | 8.62964 | 2952 ft | 203 kts | 129° |
| 2026-05-08 21:47 | 50.03231 | 8.64077 | 3404 ft | 222 kts | 172° |
| 2026-05-08 21:47 | 50.01628 | 8.63946 | 3936 ft | 237 kts | 191° |
| 2026-05-08 21:47 | 50.00510 | 8.63611 | 4256 ft | 250 kts | 199° |
| 2026-05-08 21:47 | 49.98661 | 8.61671 | 5498 ft | 240 kts | 237° |
| 2026-05-08 21:48 | 49.97666 | 8.59598 | 6303 ft | 248 kts | 229° |
| 2026-05-08 21:48 | 49.96120 | 8.58132 | 6831 ft | 273 kts | 204° |
| 2026-05-08 21:48 | 49.94306 | 8.57182 | 7549 ft | 283 kts | 201° |
| 2026-05-08 21:48 | 49.92403 | 8.56244 | 8473 ft | 286 kts | 202° |
| 2026-05-08 21:49 | 49.90537 | 8.55272 | 9403 ft | 286 kts | 203° |
| 2026-05-08 21:49 | 49.88658 | 8.54250 | 10325 ft | 286 kts | 204° |
| 2026-05-08 21:49 | 49.86750 | 8.53190 | 11089 ft | 293 kts | 204° |
| 2026-05-08 21:49 | 49.84821 | 8.52107 | 11869 ft | 297 kts | 204° |
| 2026-05-08 21:50 | 49.82885 | 8.51019 | 12737 ft | 298 kts | 204° |
| 2026-05-08 21:50 | 49.80920 | 8.49918 | 13558 ft | 300 kts | 204° |
| 2026-05-08 21:50 | 49.78966 | 8.48740 | 14333 ft | 300 kts | 212° |
| 2026-05-08 21:50 | 49.77347 | 8.46756 | 15085 ft | 295 kts | 234° |
| 2026-05-08 21:51 | 49.76614 | 8.44987 | 15597 ft | 292 kts | 248° |
| 2026-05-08 21:51 | 49.76112 | 8.40925 | 16578 ft | 293 kts | 274° |
| 2026-05-08 21:51 | 49.76501 | 8.37790 | 17330 ft | 296 kts | 282° |
| 2026-05-08 21:51 | 49.77006 | 8.34664 | 17960 ft | 301 kts | 282° |
| 2026-05-08 21:52 | 49.77349 | 8.32545 | 18317 ft | 306 kts | 282° |
| 2026-05-08 21:52 | 49.78045 | 8.28229 | 19206 ft | 310 kts | 282° |
| 2026-05-08 21:52 | 49.78565 | 8.25003 | 19892 ft | 311 kts | 282° |
| 2026-05-08 21:52 | 49.79091 | 8.21728 | 20570 ft | 313 kts | 282° |
| 2026-05-08 21:53 | 49.79610 | 8.18475 | 21229 ft | 314 kts | 282° |
| 2026-05-08 21:53 | 49.80138 | 8.15174 | 21881 ft | 316 kts | 282° |
| 2026-05-08 21:53 | 49.80667 | 8.11853 | 22498 ft | 318 kts | 282° |
| 2026-05-08 21:53 | 49.81198 | 8.08511 | 23120 ft | 320 kts | 282° |
| 2026-05-08 21:54 | 49.81734 | 8.05130 | 23746 ft | 321 kts | 282° |
| 2026-05-08 21:54 | 49.82262 | 8.01794 | 24338 ft | 323 kts | 282° |
| 2026-05-08 21:54 | 49.82797 | 7.98397 | 24920 ft | 324 kts | 282° |
| 2026-05-08 21:54 | 49.83157 | 7.96105 | 25301 ft | 325 kts | 282° |
| 2026-05-08 21:55 | 49.83690 | 7.92715 | 25850 ft | 327 kts | 282° |
| 2026-05-08 21:55 | 49.84411 | 7.88124 | 26561 ft | 329 kts | 282° |
| 2026-05-08 21:55 | 49.84959 | 7.84615 | 27081 ft | 331 kts | 282° |
| 2026-05-08 21:56 | 49.85858 | 7.78850 | 27892 ft | 333 kts | 282° |
| 2026-05-08 21:56 | 49.86412 | 7.75315 | 28355 ft | 335 kts | 282° |
| 2026-05-08 21:56 | 49.87154 | 7.70616 | 28935 ft | 337 kts | 282° |
| 2026-05-08 21:56 | 49.87702 | 7.67067 | 29291 ft | 340 kts | 282° |
| 2026-05-08 21:57 | 49.88073 | 7.64656 | 29381 ft | 345 kts | 282° |
| 2026-05-08 21:57 | 49.88824 | 7.59773 | 29690 ft | 352 kts | 282° |
| 2026-05-08 21:57 | 49.89205 | 7.57293 | 29919 ft | 353 kts | 282° |
| 2026-05-08 21:57 | 49.89964 | 7.52352 | 30385 ft | 355 kts | 282° |
| 2026-05-08 21:58 | 49.90541 | 7.48581 | 30756 ft | 355 kts | 283° |
| 2026-05-08 21:58 | 49.91110 | 7.44868 | 31198 ft | 353 kts | 283° |
| 2026-05-08 21:58 | 49.91678 | 7.41155 | 31643 ft | 350 kts | 283° |
| 2026-05-08 21:58 | 49.92239 | 7.37473 | 32064 ft | 348 kts | 283° |
| 2026-05-08 21:59 | 49.92797 | 7.33805 | 32472 ft | 346 kts | 282° |
| 2026-05-08 21:59 | 49.93164 | 7.31374 | 32753 ft | 344 kts | 282° |
| 2026-05-08 21:59 | 49.93890 | 7.26576 | 33285 ft | 342 kts | 282° |
| 2026-05-08 21:59 | 49.94434 | 7.22976 | 33671 ft | 340 kts | 282° |
| 2026-05-08 22:00 | 49.94970 | 7.19430 | 34046 ft | 338 kts | 283° |
| 2026-05-08 22:00 | 49.95517 | 7.15821 | 34399 ft | 337 kts | 282° |
| 2026-05-08 22:00 | 49.96049 | 7.12302 | 34660 ft | 338 kts | 282° |
| 2026-05-08 22:00 | 49.96406 | 7.09925 | 34804 ft | 339 kts | 282° |
| 2026-05-08 22:01 | 49.97124 | 7.05128 | 35079 ft | 341 kts | 281° |
| 2026-05-08 22:01 | 49.97666 | 7.01494 | 35288 ft | 343 kts | 281° |
| 2026-05-08 22:01 | 49.98154 | 6.97876 | 35484 ft | 344 kts | 278° |
| 2026-05-08 22:01 | 49.98527 | 6.94196 | 35673 ft | 345 kts | 276° |
| 2026-05-08 22:02 | 49.98790 | 6.90430 | 35871 ft | 346 kts | 274° |
| 2026-05-08 22:02 | 49.98936 | 6.86696 | 36057 ft | 347 kts | 272° |
| 2026-05-08 22:02 | 49.98970 | 6.82925 | 36088 ft | 348 kts | 270° |
| 2026-05-08 22:03 | 49.98810 | 6.75364 | 36100 ft | 348 kts | 269° |
| 2026-05-08 22:03 | 49.98588 | 6.67805 | 36100 ft | 349 kts | 266° |
| 2026-05-08 22:04 | 49.97935 | 6.60328 | 36099 ft | 350 kts | 262° |
| 2026-05-08 22:04 | 49.96806 | 6.52919 | 36099 ft | 352 kts | 257° |
| 2026-05-08 22:05 | 49.95203 | 6.45690 | 36099 ft | 354 kts | 253° |
| 2026-05-08 22:05 | 49.93280 | 6.38589 | 36099 ft | 354 kts | 252° |
| 2026-05-08 22:06 | 49.91351 | 6.31542 | 36104 ft | 356 kts | 251° |
| 2026-05-08 22:06 | 49.90360 | 6.27968 | 36266 ft | 357 kts | 251° |
| 2026-05-08 22:06 | 49.89337 | 6.24449 | 36548 ft | 356 kts | 251° |
| 2026-05-08 22:06 | 49.88343 | 6.20915 | 36805 ft | 355 kts | 251° |
| 2026-05-08 22:07 | 49.87655 | 6.18570 | 36950 ft | 356 kts | 249° |
| 2026-05-08 22:07 | 49.86134 | 6.14006 | 37213 ft | 358 kts | 246° |
| 2026-05-08 22:07 | 49.84855 | 6.10647 | 37407 ft | 360 kts | 244° |
| 2026-05-08 22:07 | 49.83469 | 6.07377 | 37596 ft | 362 kts | 242° |
| 2026-05-08 22:08 | 49.82011 | 6.04178 | 37781 ft | 362 kts | 242° |
| 2026-05-08 22:08 | 49.80569 | 6.00985 | 37959 ft | 362 kts | 242° |
| 2026-05-08 22:08 | 49.79110 | 5.97771 | 38076 ft | 363 kts | 242° |
| 2026-05-08 22:09 | 49.76279 | 5.91251 | 38087 ft | 360 kts | 245° |
| 2026-05-08 22:09 | 49.73892 | 5.84496 | 38091 ft | 356 kts | 249° |
| 2026-05-08 22:10 | 49.71940 | 5.77422 | 38092 ft | 354 kts | 254° |
| 2026-05-08 22:10 | 49.70271 | 5.70286 | 38092 ft | 353 kts | 254° |
| 2026-05-08 22:11 | 49.68592 | 5.63107 | 38092 ft | 353 kts | 254° |
| 2026-05-08 22:11 | 49.66910 | 5.55906 | 38325 ft | 354 kts | 255° |
| 2026-05-08 22:11 | 49.66076 | 5.52339 | 38526 ft | 352 kts | 255° |
| 2026-05-08 22:12 | 49.65234 | 5.48739 | 38688 ft | 352 kts | 255° |
| 2026-05-08 22:12 | 49.64401 | 5.45189 | 38824 ft | 352 kts | 255° |
| 2026-05-08 22:12 | 49.63565 | 5.41635 | 38953 ft | 352 kts | 255° |
| 2026-05-08 22:13 | 49.62178 | 5.35687 | 39151 ft | 350 kts | 256° |
| 2026-05-08 22:13 | 49.61166 | 5.30945 | 38932 ft | 346 kts | 256° |
| 2026-05-08 22:13 | 49.60415 | 5.27379 | 38385 ft | 347 kts | 255° |
| 2026-05-08 22:13 | 49.59671 | 5.23840 | 38128 ft | 350 kts | 256° |
| 2026-05-08 22:14 | 49.59000 | 5.20244 | 38101 ft | 350 kts | 258° |
| 2026-05-08 22:14 | 49.58051 | 5.14124 | 38089 ft | 351 kts | 259° |
| 2026-05-08 22:15 | 49.56739 | 5.05534 | 38078 ft | 351 kts | 259° |
| 2026-05-08 22:15 | 49.55619 | 4.98197 | 38072 ft | 350 kts | 259° |
| 2026-05-08 22:16 | 49.54688 | 4.92102 | 38073 ft | 350 kts | 259° |
| 2026-05-08 22:16 | 49.53370 | 4.83518 | 38080 ft | 350 kts | 259° |
| 2026-05-08 22:17 | 49.52243 | 4.76210 | 38086 ft | 349 kts | 258° |
| 2026-05-08 22:17 | 49.51113 | 4.68930 | 38089 ft | 349 kts | 258° |
| 2026-05-08 22:18 | 49.49975 | 4.61625 | 38088 ft | 349 kts | 258° |
| 2026-05-08 22:18 | 49.48843 | 4.54384 | 38085 ft | 349 kts | 258° |
| 2026-05-08 22:19 | 49.47700 | 4.47103 | 38081 ft | 349 kts | 258° |
| 2026-05-08 22:19 | 49.46550 | 4.39807 | 38075 ft | 349 kts | 258° |
| 2026-05-08 22:20 | 49.45399 | 4.32537 | 38072 ft | 349 kts | 258° |
| 2026-05-08 22:20 | 49.44237 | 4.25213 | 38066 ft | 349 kts | 258° |
| 2026-05-08 22:21 | 49.43081 | 4.17963 | 38064 ft | 349 kts | 258° |
| 2026-05-08 22:21 | 49.42110 | 4.11909 | 38064 ft | 349 kts | 258° |
| 2026-05-08 22:22 | 49.40945 | 4.04668 | 38063 ft | 349 kts | 258° |
| 2026-05-08 22:22 | 49.39769 | 3.97396 | 38064 ft | 349 kts | 258° |
| 2026-05-08 22:23 | 49.38589 | 3.90130 | 38064 ft | 349 kts | 258° |
| 2026-05-08 22:23 | 49.37407 | 3.82887 | 38063 ft | 349 kts | 258° |
| 2026-05-08 22:24 | 49.36221 | 3.75648 | 38064 ft | 349 kts | 258° |
| 2026-05-08 22:24 | 49.35023 | 3.68370 | 38064 ft | 349 kts | 258° |
| 2026-05-08 22:25 | 49.33624 | 3.59906 | 38064 ft | 349 kts | 258° |
| 2026-05-08 22:25 | 49.32624 | 3.53887 | 38064 ft | 349 kts | 258° |
| 2026-05-08 22:26 | 49.31418 | 3.46650 | 38064 ft | 349 kts | 258° |
| 2026-05-08 22:26 | 49.30002 | 3.38195 | 38065 ft | 350 kts | 258° |
| 2026-05-08 22:27 | 49.28781 | 3.30932 | 38066 ft | 350 kts | 257° |
| 2026-05-08 22:27 | 49.27766 | 3.24900 | 38065 ft | 350 kts | 257° |
| 2026-05-08 22:28 | 49.26538 | 3.17646 | 38064 ft | 350 kts | 257° |
| 2026-05-08 22:28 | 49.25313 | 3.10443 | 38064 ft | 350 kts | 257° |
| 2026-05-08 22:29 | 49.24079 | 3.03215 | 38064 ft | 348 kts | 257° |
| 2026-05-08 22:29 | 49.22844 | 2.96012 | 38064 ft | 346 kts | 257° |
| 2026-05-08 22:30 | 49.21416 | 2.87718 | 38065 ft | 343 kts | 257° |
| 2026-05-08 22:30 | 49.20195 | 2.80681 | 38064 ft | 342 kts | 256° |
| 2026-05-08 22:31 | 49.19172 | 2.74788 | 38064 ft | 342 kts | 256° |
| 2026-05-08 22:31 | 49.17940 | 2.67723 | 38064 ft | 342 kts | 256° |
| 2026-05-08 22:32 | 49.16703 | 2.60649 | 38064 ft | 342 kts | 256° |
| 2026-05-08 22:32 | 49.15468 | 2.53621 | 38064 ft | 342 kts | 256° |
| 2026-05-08 22:33 | 49.14218 | 2.46539 | 38064 ft | 342 kts | 256° |
| 2026-05-08 22:33 | 49.13076 | 2.39464 | 38063 ft | 342 kts | 259° |
| 2026-05-08 22:34 | 49.12313 | 2.32272 | 38065 ft | 342 kts | 261° |
| 2026-05-08 22:34 | 49.11633 | 2.25048 | 38063 ft | 342 kts | 262° |
| 2026-05-08 22:35 | 49.10954 | 2.17811 | 38063 ft | 344 kts | 262° |
| 2026-05-08 22:35 | 49.10178 | 2.10561 | 38063 ft | 345 kts | 259° |
| 2026-05-08 22:36 | 49.08984 | 2.03436 | 38063 ft | 348 kts | 255° |
| 2026-05-08 22:36 | 49.07334 | 1.96383 | 38061 ft | 350 kts | 250° |
| 2026-05-08 22:37 | 49.05332 | 1.89538 | 38061 ft | 352 kts | 249° |
| 2026-05-08 22:37 | 49.03273 | 1.82634 | 38062 ft | 356 kts | 249° |
| 2026-05-08 22:38 | 49.01189 | 1.75702 | 38062 ft | 361 kts | 248° |
| 2026-05-08 22:38 | 48.99054 | 1.68638 | 38062 ft | 365 kts | 248° |
| 2026-05-08 22:39 | 48.96898 | 1.61533 | 38062 ft | 370 kts | 248° |
| 2026-05-08 22:39 | 48.94704 | 1.54331 | 38064 ft | 373 kts | 248° |
| 2026-05-08 22:40 | 48.92123 | 1.45893 | 38064 ft | 374 kts | 248° |
| 2026-05-08 22:40 | 48.90281 | 1.39882 | 38064 ft | 374 kts | 248° |
| 2026-05-08 22:41 | 48.88046 | 1.32674 | 38065 ft | 374 kts | 247° |
| 2026-05-08 22:41 | 48.85811 | 1.25454 | 38064 ft | 374 kts | 247° |
| 2026-05-08 22:42 | 48.83587 | 1.18267 | 38064 ft | 374 kts | 247° |
| 2026-05-08 22:42 | 48.81363 | 1.11090 | 38065 ft | 371 kts | 248° |
| 2026-05-08 22:43 | 48.79159 | 1.03986 | 38065 ft | 368 kts | 248° |
| 2026-05-08 22:43 | 48.76962 | 0.96937 | 38065 ft | 364 kts | 248° |
| 2026-05-08 22:44 | 48.74746 | 0.90016 | 38064 ft | 363 kts | 245° |
| 2026-05-08 22:44 | 48.72177 | 0.83375 | 38064 ft | 364 kts | 242° |
| 2026-05-08 22:45 | 48.69506 | 0.76756 | 38064 ft | 364 kts | 242° |
| 2026-05-08 22:45 | 48.66841 | 0.70171 | 38063 ft | 365 kts | 243° |
| 2026-05-08 22:46 | 48.64169 | 0.63588 | 38062 ft | 365 kts | 242° |
| 2026-05-08 22:46 | 48.61488 | 0.57005 | 38056 ft | 365 kts | 243° |
| 2026-05-08 22:47 | 48.58798 | 0.50414 | 38049 ft | 365 kts | 243° |
| 2026-05-08 22:47 | 48.56118 | 0.43866 | 38042 ft | 365 kts | 242° |
| 2026-05-08 22:48 | 48.53427 | 0.37306 | 38038 ft | 365 kts | 242° |
| 2026-05-08 22:48 | 48.50727 | 0.30728 | 38038 ft | 365 kts | 242° |
| 2026-05-08 22:49 | 48.48023 | 0.24152 | 38038 ft | 365 kts | 242° |
| 2026-05-08 22:49 | 48.43982 | 0.14364 | 38037 ft | 365 kts | 242° |
| 2026-05-08 22:50 | 48.41256 | 0.07785 | 38037 ft | 365 kts | 242° |
| 2026-05-08 22:50 | 48.38553 | 0.01285 | 38037 ft | 365 kts | 242° |
| 2026-05-08 22:51 | 48.35745 | -0.05195 | 38036 ft | 367 kts | 239° |
| 2026-05-08 22:51 | 48.32687 | -0.11408 | 38036 ft | 367 kts | 238° |
| 2026-05-08 22:52 | 48.29623 | -0.17629 | 38036 ft | 367 kts | 238° |
| 2026-05-08 22:52 | 48.26568 | -0.23792 | 38035 ft | 367 kts | 238° |
| 2026-05-08 22:53 | 48.23435 | -0.29985 | 38035 ft | 368 kts | 237° |
| 2026-05-08 22:53 | 48.20311 | -0.36091 | 38031 ft | 368 kts | 237° |
| 2026-05-08 22:54 | 48.17180 | -0.42205 | 38025 ft | 367 kts | 237° |
| 2026-05-08 22:54 | 48.14035 | -0.48336 | 38018 ft | 368 kts | 237° |
| 2026-05-08 22:55 | 48.10908 | -0.54424 | 38013 ft | 368 kts | 237° |
| 2026-05-08 22:55 | 48.07758 | -0.60545 | 38010 ft | 367 kts | 237° |
| 2026-05-08 22:56 | 48.04608 | -0.66650 | 38012 ft | 368 kts | 237° |
| 2026-05-08 22:56 | 48.01466 | -0.72751 | 38009 ft | 368 kts | 237° |
| 2026-05-08 22:57 | 47.98310 | -0.78853 | 38009 ft | 368 kts | 237° |
| 2026-05-08 22:57 | 47.95154 | -0.84935 | 38009 ft | 368 kts | 237° |
| 2026-05-08 22:58 | 47.91989 | -0.91017 | 38009 ft | 368 kts | 237° |
| 2026-05-08 22:58 | 47.88836 | -0.97051 | 38009 ft | 368 kts | 237° |
| 2026-05-08 22:59 | 47.85652 | -1.03091 | 38010 ft | 366 kts | 237° |
| 2026-05-08 22:59 | 47.82509 | -1.09064 | 38010 ft | 363 kts | 237° |
| 2026-05-08 23:00 | 47.79378 | -1.15017 | 38010 ft | 360 kts | 237° |
| 2026-05-08 23:00 | 47.76273 | -1.20915 | 38010 ft | 357 kts | 237° |
| 2026-05-08 23:01 | 47.72680 | -1.27735 | 38009 ft | 357 kts | 237° |
| 2026-05-08 23:01 | 47.70106 | -1.32609 | 38009 ft | 357 kts | 237° |
| 2026-05-08 23:02 | 47.67024 | -1.38440 | 38008 ft | 356 kts | 237° |
| 2026-05-08 23:02 | 47.63953 | -1.44232 | 38005 ft | 357 kts | 237° |
| 2026-05-08 23:03 | 47.60841 | -1.50081 | 37998 ft | 357 kts | 237° |
| 2026-05-08 23:03 | 47.57551 | -1.55660 | 37990 ft | 359 kts | 234° |
| 2026-05-08 23:04 | 47.54196 | -1.61203 | 37978 ft | 359 kts | 234° |
| 2026-05-08 23:04 | 47.50842 | -1.66738 | 37970 ft | 359 kts | 234° |
| 2026-05-08 23:05 | 47.47492 | -1.72270 | 37960 ft | 359 kts | 234° |
| 2026-05-08 23:05 | 47.44117 | -1.77817 | 37955 ft | 359 kts | 234° |
| 2026-05-08 23:06 | 47.40754 | -1.83319 | 37954 ft | 360 kts | 234° |
| 2026-05-08 23:06 | 47.37222 | -1.88726 | 37954 ft | 363 kts | 230° |
| 2026-05-08 23:07 | 47.33352 | -1.93604 | 37954 ft | 367 kts | 225° |
| 2026-05-08 23:07 | 47.29097 | -1.97979 | 37954 ft | 372 kts | 220° |
| 2026-05-08 23:08 | 47.24637 | -2.01991 | 37954 ft | 373 kts | 220° |
| 2026-05-08 23:08 | 47.20205 | -2.05974 | 37954 ft | 373 kts | 220° |
| 2026-05-08 23:09 | 47.15739 | -2.09967 | 37955 ft | 373 kts | 220° |
| 2026-05-08 23:09 | 47.11285 | -2.13936 | 37954 ft | 373 kts | 220° |
| 2026-05-08 23:10 | 47.06807 | -2.17918 | 37954 ft | 373 kts | 220° |
| 2026-05-08 23:10 | 47.02345 | -2.21875 | 37952 ft | 373 kts | 220° |
| 2026-05-08 23:11 | 46.97822 | -2.25888 | 37951 ft | 380 kts | 219° |
| 2026-05-08 23:11 | 46.93218 | -2.29962 | 37951 ft | 388 kts | 219° |
| 2026-05-08 23:12 | 46.88533 | -2.34088 | 37951 ft | 396 kts | 218° |
| 2026-05-08 23:12 | 46.83752 | -2.38261 | 37954 ft | 400 kts | 218° |
| 2026-05-08 23:13 | 46.78931 | -2.42464 | 37954 ft | 400 kts | 218° |
| 2026-05-08 23:13 | 46.74112 | -2.46676 | 37954 ft | 400 kts | 218° |
| 2026-05-08 23:14 | 46.69312 | -2.50868 | 37953 ft | 400 kts | 218° |
| 2026-05-08 23:14 | 46.64513 | -2.55057 | 37953 ft | 400 kts | 218° |
| 2026-05-08 23:15 | 46.59702 | -2.59247 | 37954 ft | 400 kts | 218° |
| 2026-05-08 23:15 | 46.54886 | -2.63435 | 37954 ft | 400 kts | 218° |
| 2026-05-08 23:16 | 46.50089 | -2.67607 | 37954 ft | 400 kts | 217° |
| 2026-05-08 23:16 | 46.45259 | -2.71813 | 37954 ft | 401 kts | 217° |
| 2026-05-08 23:17 | 46.40446 | -2.75978 | 37953 ft | 401 kts | 217° |
| 2026-05-08 23:17 | 46.35615 | -2.80147 | 37953 ft | 400 kts | 217° |
| 2026-05-08 23:18 | 46.30814 | -2.84276 | 37953 ft | 401 kts | 217° |
| 2026-05-08 23:18 | 46.26130 | -2.88714 | 37954 ft | 396 kts | 223° |
| 2026-05-08 23:19 | 46.21868 | -2.93690 | 37956 ft | 392 kts | 226° |
| 2026-05-08 23:19 | 46.17681 | -2.98794 | 37955 ft | 389 kts | 226° |
| 2026-05-08 23:20 | 46.13538 | -3.03838 | 37955 ft | 386 kts | 226° |
| 2026-05-08 23:20 | 46.09431 | -3.08831 | 37956 ft | 382 kts | 226° |
| 2026-05-08 23:21 | 46.05349 | -3.13784 | 37955 ft | 379 kts | 226° |
| 2026-05-08 23:21 | 46.01282 | -3.18710 | 37954 ft | 379 kts | 226° |
| 2026-05-08 23:22 | 45.97206 | -3.23640 | 37954 ft | 378 kts | 226° |
| 2026-05-08 23:22 | 45.93139 | -3.28548 | 37954 ft | 379 kts | 226° |
| 2026-05-08 23:23 | 45.89095 | -3.33415 | 37955 ft | 379 kts | 226° |
| 2026-05-08 23:23 | 45.84995 | -3.38308 | 37954 ft | 379 kts | 226° |
| 2026-05-08 23:24 | 45.80922 | -3.43173 | 37953 ft | 378 kts | 226° |
| 2026-05-08 23:24 | 45.76852 | -3.48036 | 37953 ft | 378 kts | 226° |
| 2026-05-08 23:25 | 45.72767 | -3.52914 | 37954 ft | 378 kts | 226° |
| 2026-05-08 23:25 | 45.68721 | -3.57736 | 37954 ft | 378 kts | 226° |
| 2026-05-08 23:26 | 45.64624 | -3.62612 | 37954 ft | 379 kts | 226° |
| 2026-05-08 23:26 | 45.60551 | -3.67457 | 37951 ft | 379 kts | 225° |
| 2026-05-08 23:27 | 45.56498 | -3.72286 | 37941 ft | 379 kts | 225° |
| 2026-05-08 23:27 | 45.52395 | -3.77152 | 37927 ft | 379 kts | 225° |
| 2026-05-08 23:28 | 45.48318 | -3.81972 | 37915 ft | 379 kts | 225° |
| 2026-05-08 23:28 | 45.44218 | -3.86806 | 37906 ft | 379 kts | 225° |
| 2026-05-08 23:29 | 45.40143 | -3.91601 | 37901 ft | 379 kts | 225° |
| 2026-05-08 23:29 | 45.36058 | -3.96398 | 37900 ft | 378 kts | 225° |
| 2026-05-08 23:30 | 45.31956 | -4.01203 | 37899 ft | 379 kts | 225° |
| 2026-05-08 23:30 | 45.27844 | -4.06011 | 37899 ft | 379 kts | 225° |
| 2026-05-08 23:31 | 45.23735 | -4.10810 | 37899 ft | 379 kts | 225° |
| 2026-05-08 23:31 | 45.19614 | -4.15610 | 37899 ft | 379 kts | 225° |
| 2026-05-08 23:32 | 45.15516 | -4.20374 | 37899 ft | 379 kts | 225° |
| 2026-05-08 23:32 | 45.11417 | -4.25132 | 37899 ft | 379 kts | 225° |
| 2026-05-08 23:33 | 45.07325 | -4.29875 | 37899 ft | 379 kts | 225° |
| 2026-05-08 23:33 | 45.03194 | -4.34649 | 37900 ft | 379 kts | 225° |
| 2026-05-08 23:34 | 44.99078 | -4.39402 | 37899 ft | 379 kts | 225° |
| 2026-05-08 23:34 | 44.94984 | -4.44115 | 37899 ft | 379 kts | 225° |
| 2026-05-08 23:35 | 44.90842 | -4.48875 | 37900 ft | 379 kts | 225° |
| 2026-05-08 23:35 | 44.86726 | -4.53576 | 37900 ft | 379 kts | 224° |
| 2026-05-08 23:36 | 44.82578 | -4.58299 | 37899 ft | 379 kts | 225° |
| 2026-05-08 23:36 | 44.78457 | -4.62999 | 37889 ft | 378 kts | 225° |
| 2026-05-08 23:37 | 44.76422 | -4.65320 | 37510 ft | 376 kts | 224° |
| 2026-05-08 23:37 | 44.74368 | -4.67668 | 36342 ft | 380 kts | 224° |
| 2026-05-08 23:37 | 44.72311 | -4.70031 | 35381 ft | 384 kts | 224° |
| 2026-05-08 23:37 | 44.70233 | -4.72405 | 34920 ft | 379 kts | 224° |
| 2026-05-08 23:38 | 44.68170 | -4.74754 | 34389 ft | 378 kts | 224° |
| 2026-05-08 23:38 | 44.66132 | -4.77071 | 33839 ft | 377 kts | 224° |
| 2026-05-08 23:38 | 44.64072 | -4.79412 | 33265 ft | 376 kts | 224° |
| 2026-05-08 23:38 | 44.62042 | -4.81720 | 32685 ft | 376 kts | 224° |
| 2026-05-08 23:39 | 44.59985 | -4.84057 | 32054 ft | 377 kts | 224° |
| 2026-05-08 23:39 | 44.57936 | -4.86383 | 31345 ft | 380 kts | 223° |
| 2026-05-08 23:39 | 44.55844 | -4.88753 | 30586 ft | 384 kts | 223° |
| 2026-05-08 23:39 | 44.53763 | -4.91105 | 29827 ft | 388 kts | 223° |
| 2026-05-08 23:40 | 44.51637 | -4.93504 | 29097 ft | 390 kts | 223° |
| 2026-05-08 23:40 | 44.49509 | -4.95899 | 28579 ft | 386 kts | 222° |
| 2026-05-08 23:40 | 44.47420 | -4.98244 | 28068 ft | 383 kts | 222° |
| 2026-05-08 23:40 | 44.45321 | -5.00600 | 27535 ft | 381 kts | 222° |
| 2026-05-08 23:41 | 44.43262 | -5.02912 | 27008 ft | 378 kts | 222° |
| 2026-05-08 23:41 | 44.41190 | -5.05236 | 26485 ft | 376 kts | 222° |
| 2026-05-08 23:41 | 44.39158 | -5.07515 | 25984 ft | 373 kts | 222° |
| 2026-05-08 23:41 | 44.37117 | -5.09802 | 25500 ft | 370 kts | 222° |
| 2026-05-08 23:42 | 44.35097 | -5.12064 | 25022 ft | 366 kts | 222° |
| 2026-05-08 23:42 | 44.33120 | -5.14277 | 24552 ft | 363 kts | 222° |
| 2026-05-08 23:42 | 44.31132 | -5.16499 | 24077 ft | 360 kts | 222° |
| 2026-05-08 23:42 | 44.29160 | -5.18704 | 23605 ft | 357 kts | 222° |
| 2026-05-08 23:43 | 44.27228 | -5.20862 | 23145 ft | 354 kts | 222° |
| 2026-05-08 23:43 | 44.25304 | -5.23009 | 22686 ft | 351 kts | 222° |
| 2026-05-08 23:43 | 44.23376 | -5.25157 | 22225 ft | 349 kts | 222° |
| 2026-05-08 23:43 | 44.21486 | -5.27263 | 21777 ft | 346 kts | 222° |
| 2026-05-08 23:44 | 44.19585 | -5.29379 | 21317 ft | 343 kts | 222° |
| 2026-05-08 23:44 | 44.17708 | -5.31466 | 20862 ft | 341 kts | 222° |
| 2026-05-08 23:44 | 44.15243 | -5.34206 | 20266 ft | 337 kts | 222° |
| 2026-05-08 23:44 | 44.14000 | -5.35587 | 19967 ft | 336 kts | 222° |
| 2026-05-08 23:45 | 44.12189 | -5.37595 | 19534 ft | 333 kts | 222° |
| 2026-05-08 23:45 | 44.10354 | -5.39631 | 19089 ft | 331 kts | 222° |
| 2026-05-08 23:45 | 44.08561 | -5.41616 | 18654 ft | 329 kts | 222° |
| 2026-05-08 23:45 | 44.06760 | -5.43611 | 18218 ft | 326 kts | 222° |
| 2026-05-08 23:46 | 44.04976 | -5.45585 | 17790 ft | 324 kts | 222° |
| 2026-05-08 23:46 | 44.03205 | -5.47543 | 17361 ft | 322 kts | 222° |
| 2026-05-08 23:46 | 44.01438 | -5.49494 | 16936 ft | 319 kts | 222° |
| 2026-05-08 23:46 | 43.99696 | -5.51416 | 16514 ft | 317 kts | 222° |
| 2026-05-08 23:47 | 43.97958 | -5.53331 | 16095 ft | 315 kts | 222° |
| 2026-05-08 23:47 | 43.96265 | -5.55228 | 15676 ft | 312 kts | 226° |
| 2026-05-08 23:47 | 43.94822 | -5.57482 | 15255 ft | 306 kts | 238° |
| 2026-05-08 23:47 | 43.93797 | -5.60078 | 14836 ft | 302 kts | 249° |
| 2026-05-08 23:48 | 43.93082 | -5.62798 | 14441 ft | 300 kts | 252° |
| 2026-05-08 23:48 | 43.92402 | -5.65571 | 14038 ft | 298 kts | 251° |
| 2026-05-08 23:48 | 43.91739 | -5.68298 | 13635 ft | 296 kts | 251° |
| 2026-05-08 23:48 | 43.91077 | -5.71012 | 13234 ft | 295 kts | 251° |
| 2026-05-08 23:49 | 43.90410 | -5.73735 | 12831 ft | 293 kts | 251° |
| 2026-05-08 23:49 | 43.89748 | -5.76423 | 12434 ft | 291 kts | 251° |
| 2026-05-08 23:49 | 43.89073 | -5.79109 | 12036 ft | 290 kts | 251° |
| 2026-05-08 23:49 | 43.88411 | -5.81737 | 11636 ft | 289 kts | 251° |
| 2026-05-08 23:50 | 43.87740 | -5.84407 | 11206 ft | 288 kts | 252° |
| 2026-05-08 23:50 | 43.87084 | -5.87023 | 10782 ft | 288 kts | 252° |
| 2026-05-08 23:50 | 43.86419 | -5.89684 | 10350 ft | 288 kts | 252° |
| 2026-05-08 23:50 | 43.85761 | -5.92319 | 10086 ft | 280 kts | 253° |
| 2026-05-08 23:51 | 43.85136 | -5.94823 | 10010 ft | 266 kts | 253° |
| 2026-05-08 23:51 | 43.84538 | -5.97217 | 9937 ft | 253 kts | 253° |
| 2026-05-08 23:51 | 43.83962 | -5.99525 | 9620 ft | 253 kts | 253° |
| 2026-05-08 23:51 | 43.83381 | -6.01853 | 9285 ft | 251 kts | 253° |
| 2026-05-08 23:52 | 43.82812 | -6.04131 | 8961 ft | 250 kts | 253° |
| 2026-05-08 23:52 | 43.82233 | -6.06446 | 8636 ft | 249 kts | 253° |
| 2026-05-08 23:52 | 43.81665 | -6.08717 | 8319 ft | 248 kts | 254° |
| 2026-05-08 23:52 | 43.81099 | -6.10978 | 8007 ft | 247 kts | 254° |
| 2026-05-08 23:53 | 43.80529 | -6.13253 | 7696 ft | 246 kts | 254° |
| 2026-05-08 23:53 | 43.79961 | -6.15519 | 7390 ft | 245 kts | 254° |
| 2026-05-08 23:53 | 43.79395 | -6.17769 | 7089 ft | 244 kts | 254° |
| 2026-05-08 23:53 | 43.78837 | -6.19987 | 6793 ft | 243 kts | 254° |
| 2026-05-08 23:54 | 43.78272 | -6.22228 | 6497 ft | 243 kts | 254° |
| 2026-05-08 23:54 | 43.77713 | -6.24447 | 6208 ft | 242 kts | 254° |
| 2026-05-08 23:54 | 43.77152 | -6.26669 | 5920 ft | 241 kts | 254° |
| 2026-05-08 23:55 | 43.75322 | -6.30517 | 5312 ft | 250 kts | 213° |
| 2026-05-08 23:55 | 43.73684 | -6.31436 | 5037 ft | 252 kts | 200° |
| 2026-05-08 23:55 | 43.71978 | -6.32156 | 4758 ft | 252 kts | 199° |
| 2026-05-08 23:55 | 43.70299 | -6.32850 | 4590 ft | 245 kts | 199° |
| 2026-05-08 23:56 | 43.68706 | -6.33521 | 4559 ft | 231 kts | 200° |
| 2026-05-08 23:56 | 43.67198 | -6.34171 | 4524 ft | 221 kts | 200° |
| 2026-05-08 23:56 | 43.65738 | -6.34765 | 4446 ft | 212 kts | 191° |
| 2026-05-08 23:56 | 43.64322 | -6.34509 | 4280 ft | 204 kts | 154° |
| 2026-05-08 23:57 | 43.63341 | -6.33182 | 4050 ft | 194 kts | 118° |
| 2026-05-08 23:57 | 43.62848 | -6.31469 | 3873 ft | 184 kts | 104° |
| 2026-05-08 23:57 | 43.62525 | -6.29797 | 3709 ft | 174 kts | 102° |
| 2026-05-08 23:57 | 43.62214 | -6.28219 | 3560 ft | 164 kts | 104° |
| 2026-05-08 23:58 | 43.61896 | -6.26749 | 3464 ft | 153 kts | 105° |
| 2026-05-08 23:58 | 43.61583 | -6.25385 | 3314 ft | 145 kts | 105° |
| 2026-05-08 23:58 | 43.61268 | -6.24053 | 3204 ft | 144 kts | 106° |
| 2026-05-08 23:58 | 43.60945 | -6.22709 | 3072 ft | 144 kts | 106° |
| 2026-05-08 23:59 | 43.60630 | -6.21401 | 2877 ft | 143 kts | 106° |
| 2026-05-08 23:59 | 43.60313 | -6.20085 | 2686 ft | 142 kts | 106° |
| 2026-05-08 23:59 | 43.59999 | -6.18780 | 2496 ft | 141 kts | 106° |
| 2026-05-08 23:59 | 43.59688 | -6.17481 | 2306 ft | 140 kts | 106° |
| 2026-05-09 00:00 | 43.59381 | -6.16195 | 2118 ft | 139 kts | 107° |
| 2026-05-09 00:00 | 43.59076 | -6.14916 | 1932 ft | 139 kts | 107° |
| 2026-05-09 00:00 | 43.58773 | -6.13647 | 1747 ft | 138 kts | 107° |
| 2026-05-09 00:00 | 43.58469 | -6.12369 | 1560 ft | 137 kts | 107° |
| 2026-05-09 00:01 | 43.58170 | -6.11110 | 1377 ft | 137 kts | 107° |
| 2026-05-09 00:01 | 43.57874 | -6.09860 | 1195 ft | 136 kts | 107° |
| 2026-05-09 00:01 | 43.57577 | -6.08607 | 1013 ft | 136 kts | 107° |
| 2026-05-09 00:01 | 43.57281 | -6.07357 | 831 ft | 135 kts | 107° |
| 2026-05-09 00:02 | 43.56988 | -6.06121 | 651 ft | 135 kts | 108° |
| 2026-05-09 00:02 | 43.56693 | -6.04874 | 493 ft | 134 kts | 108° |
| 2026-05-09 00:02 | 43.56411 | -6.03688 | 425 ft | 114 kts | 108° |
| 2026-05-09 00:02 | 43.56259 | -6.03042 | 425 ft | 26 kts | 107° |
| 2026-05-09 00:03 | 43.56211 | -6.02841 | 425 ft | 21 kts | 109° |
| 2026-05-09 00:03 | 43.56165 | -6.02651 | 425 ft | 20 kts | 109° |
| 2026-05-09 00:03 | 43.56120 | -6.02469 | 425 ft | 19 kts | 108° |
| 2026-05-09 00:03 | 43.56071 | -6.02299 | 425 ft | 18 kts | 120° |
| 2026-05-09 00:04 | 43.56007 | -6.02226 | 425 ft | 0 kts | 179° |
| 2026-05-09 00:04 | 43.55998 | -6.02229 | 425 ft | 1 kts | 201° |
| 2026-05-09 00:04 | 43.55986 | -6.02246 | 425 ft | 3 kts | 244° |
| 2026-05-09 00:04 | 43.55958 | -6.02328 | 425 ft | 14 kts | 244° |
| 2026-05-09 00:05 | 43.55954 | -6.02462 | 425 ft | 15 kts | 289° |
| 2026-05-09 00:05 | 43.55991 | -6.02615 | 425 ft | 16 kts | 288° |
| 2026-05-09 00:05 | 43.56027 | -6.02773 | 425 ft | 16 kts | 287° |
| 2026-05-09 00:05 | 43.56011 | -6.02908 | 425 ft | 14 kts | 209° |
| 2026-05-09 00:06 | 43.56010 | -6.03029 | 425 ft | 13 kts | 289° |
| 2026-05-09 00:06 | 43.56030 | -6.03126 | 425 ft | 3 kts | 255° |
| 2026-05-09 00:06 | 43.56001 | -6.03150 | 425 ft | 2 kts | 198° |
| 2026-05-09 00:06 | 43.55994 | -6.03155 | 425 ft | 4 kts | 229° |
| 2026-05-09 00:07 | 43.55994 | -6.03176 | 425 ft | 0 kts | 278° |
| 2026-05-09 00:07 | 43.55995 | -6.03187 | 425 ft | 0 kts | 275° |
| 2026-05-09 00:07 | 43.55996 | -6.03199 | 425 ft | 0 kts | 271° |
| 2026-05-09 00:07 | 43.55996 | -6.03191 | 425 ft | 0 kts | 270° |
| 2026-05-09 00:08 | 43.55996 | -6.03185 | 425 ft | 2 kts | 274° |
| 2026-05-09 00:08 | 43.55995 | -6.03172 | 425 ft | 0 kts | 271° |